»·PEaware :: N61733 KOXR-KSMX

N61733 :: KOXR-KSMX

FLIGHT INFORMATION

Flight Status: Arrived
Operator: Privately registered:
United States
More flights under this callsign
Pilot: Anonymous 28662 (28662)
Aircraft: CESSNA 172 SKYHAWK
(C172)
More flights by this aircraft type
Origin: KOXR Oxnard
United States
Destination: KSMX Santa Maria Pub/Capt Hancock
United States
More flights between these airports :: More routes between these airports
Route: +
File this flight plan on PilotEdge
Remarks:
Altitude:
(Current/Filed)
6,500ft
Speed:
(Current/Filed)
0kts
Departed: 01-Aug-20 01:50 PM
Arrived: 01-Aug-20 02:35 PM
Distance/Time
Traveled:
74nm/0:45
Distance/Time
To Go:
Arrived

Flight Plot

Page will automatically refresh every two minutes.


Map Options




Map Legend


Flown Route
Filed Route
Departure Airport
Arrival Airport
Navaid (VOR, NDB)
Fix

Horizontal Profiles

Position Reports

Time Latitude Longitude Heading Altitude Ground
Speed
01-Aug-20 13:42 34.199128 -119.202041 3 45ft 0kts
01-Aug-20 13:43 34.199152 -119.202040 3 45ft 0kts
01-Aug-20 13:44 34.199740 -119.199631 89 47ft 19kts
01-Aug-20 13:45 34.199779 -119.197222 269 48ft 0kts
01-Aug-20 13:46 34.199779 -119.197222 269 48ft 0kts
01-Aug-20 13:47 34.199779 -119.197222 269 48ft 0kts
01-Aug-20 13:48 34.199784 -119.197443 280 48ft 4kts
01-Aug-20 13:49 34.199895 -119.197538 354 48ft 0kts
01-Aug-20 13:50 34.200813 -119.207204 270 122ft 85kts
01-Aug-20 13:51 34.200274 -119.235164 265 932ft 84kts
01-Aug-20 13:52 34.208607 -119.259999 313 1689ft 86kts
01-Aug-20 13:53 34.225529 -119.280006 309 2377ft 84kts
01-Aug-20 13:53 34.240210 -119.295702 309 2896ft 85kts
01-Aug-20 13:55 34.258783 -119.319374 306 3617ft 82kts
01-Aug-20 13:56 34.274141 -119.339995 303 4149ft 84kts
01-Aug-20 13:56 34.285649 -119.358756 299 4587ft 84kts
01-Aug-20 13:57 34.298475 -119.382266 294 5074ft 84kts
01-Aug-20 13:59 34.311391 -119.411055 295 5635ft 82kts
01-Aug-20 14:00 34.324055 -119.434164 295 6082ft 83kts
01-Aug-20 14:00 34.335652 -119.453165 300 6419ft 86kts
01-Aug-20 14:01 34.352578 -119.478867 300 6478ft 105kts
01-Aug-20 14:02 34.371401 -119.507098 294 6546ft 108kts
01-Aug-20 14:03 34.387263 -119.539528 291 6544ft 114kts
01-Aug-20 14:04 34.402283 -119.574044 291 6516ft 117kts
01-Aug-20 14:05 34.419915 -119.607567 298 6510ft 119kts
01-Aug-20 14:06 34.439586 -119.640048 299 6503ft 119kts
01-Aug-20 14:07 34.457805 -119.672645 295 6524ft 117kts
01-Aug-20 14:08 34.476703 -119.705260 299 6555ft 118kts
01-Aug-20 14:09 34.494628 -119.738015 293 6586ft 117kts
01-Aug-20 14:10 34.514201 -119.770514 300 6621ft 118kts
01-Aug-20 14:11 34.534033 -119.802404 295 6665ft 116kts
01-Aug-20 14:12 34.549279 -119.836464 287 6713ft 112kts
01-Aug-20 14:13 34.560875 -119.871618 286 6757ft 111kts
01-Aug-20 14:14 34.574966 -119.905372 296 6799ft 112kts
01-Aug-20 14:15 34.591498 -119.937680 296 6838ft 111kts
01-Aug-20 14:16 34.608058 -119.970599 295 6547ft 123kts
01-Aug-20 14:17 34.624388 -120.004946 291 6316ft 115kts
01-Aug-20 14:18 34.638314 -120.039979 296 6189ft 116kts
01-Aug-20 14:19 34.658158 -120.071672 306 5835ft 119kts
01-Aug-20 14:20 34.679714 -120.102317 303 5253ft 115kts
01-Aug-20 14:21 34.700153 -120.132730 305 4691ft 115kts
01-Aug-20 14:22 34.719409 -120.163856 294 4136ft 113kts
01-Aug-20 14:23 34.733888 -120.197371 292 3671ft 112kts
01-Aug-20 14:24 34.745426 -120.231263 286 3509ft 104kts
01-Aug-20 14:25 34.758187 -120.263696 298 3192ft 107kts
01-Aug-20 14:26 34.775647 -120.292132 308 2645ft 103kts
01-Aug-20 14:27 34.794451 -120.317465 307 2640ft 100kts
01-Aug-20 14:28 34.812302 -120.343725 306 2536ft 99kts
01-Aug-20 14:29 34.830269 -120.369588 310 2060ft 98kts
01-Aug-20 14:30 34.848375 -120.392752 312 1558ft 93kts
01-Aug-20 14:31 34.865551 -120.413347 316 1073ft 76kts
01-Aug-20 14:32 34.880332 -120.431158 315 687ft 68kts
01-Aug-20 14:33 34.893503 -120.446700 318 283ft 55kts
01-Aug-20 14:34 34.897895 -120.450274 1 265ft 0kts
01-Aug-20 14:35 34.897920 -120.450273 1 265ft 3kts
01-Aug-20 14:36 34.900516 -120.450619 280 265ft 3kts
01-Aug-20 14:37 34.900524 -120.450670 280 265ft 0kts

Navigation Log

Ident Type
Flight plan parsing failed, navigation log unavailable